createdAt,value
2018-08-11T00:01:53.042Z,63.57
2018-08-11T00:04:20.362Z,63.60
2018-08-11T00:06:47.709Z,64.03
2018-08-11T00:09:15.035Z,63.45
2018-08-11T00:11:42.422Z,64.52
2018-08-11T00:14:10.083Z,64.35
2018-08-11T00:16:37.526Z,63.55
2018-08-11T00:19:05.052Z,64.53
2018-08-11T00:21:32.398Z,64.03
2018-08-11T00:23:59.736Z,64.55
2018-08-11T00:26:27.091Z,63.93
2018-08-11T00:28:54.421Z,64.69
2018-08-11T00:31:21.765Z,64.99
2018-08-11T00:33:49.028Z,63.57
2018-08-11T00:36:16.282Z,64.76
2018-08-11T00:38:43.666Z,64.81
2018-08-11T00:41:11.007Z,63.21
2018-08-11T00:43:38.457Z,62.86
2018-08-11T00:46:05.826Z,62.52
2018-08-11T00:48:33.147Z,61.82
2018-08-11T00:51:00.463Z,62.89
2018-08-11T00:53:27.714Z,62.47
2018-08-11T00:55:54.971Z,62.40
2018-08-11T00:58:22.284Z,63.46
2018-08-11T01:00:49.553Z,63.01
2018-08-11T01:03:16.868Z,63.57
2018-08-11T01:05:44.168Z,63.80
2018-08-11T01:08:11.468Z,63.16
2018-08-11T01:10:38.802Z,63.48
2018-08-11T01:13:06.320Z,62.16
2018-08-11T01:15:33.631Z,62.17
2018-08-11T01:18:00.936Z,62.59
2018-08-11T01:20:28.336Z,62.54
2018-08-11T01:22:55.721Z,61.93
2018-08-11T01:25:23.044Z,61.83
2018-08-11T01:27:50.364Z,60.71
2018-08-11T01:30:19.280Z,61.71
2018-08-11T01:32:46.645Z,61.75
2018-08-11T01:35:13.821Z,60.92
2018-08-11T01:37:42.005Z,62.61
2018-08-11T01:40:10.697Z,60.74
2018-08-11T01:42:38.350Z,60.78
2018-08-11T01:45:06.551Z,62.45
2018-08-11T01:47:33.938Z,61.64
2018-08-11T01:50:01.209Z,61.98
2018-08-11T01:52:28.558Z,62.20
2018-08-11T01:54:55.870Z,61.34
2018-08-11T01:57:23.117Z,62.52
2018-08-11T01:59:50.406Z,62.03
2018-08-11T02:02:17.691Z,62.37
2018-08-11T02:04:45.038Z,62.82
2018-08-11T02:07:12.332Z,62.44
2018-08-11T02:09:39.745Z,62.36
2018-08-11T02:12:07.202Z,62.87
2018-08-11T02:14:34.457Z,63.55
2018-08-11T02:17:01.700Z,63.34
2018-08-11T02:19:29.030Z,63.83
2018-08-11T02:21:56.296Z,63.21
2018-08-11T02:24:23.655Z,62.96
2018-08-11T02:26:51.117Z,63.17
2018-08-11T02:29:18.358Z,63.94
2018-08-11T02:31:45.725Z,64.37
2018-08-11T02:34:13.028Z,64.48
2018-08-11T02:36:40.332Z,63.78
2018-08-11T02:39:12.077Z,64.93
2018-08-11T02:41:39.450Z,65.56
2018-08-11T02:44:06.770Z,65.34
2018-08-11T02:46:34.385Z,65.57
2018-08-11T02:49:01.859Z,66.10
2018-08-11T02:51:29.169Z,66.75
2018-08-11T02:53:56.566Z,66.83
2018-08-11T02:56:23.867Z,66.86
2018-08-11T02:58:51.184Z,67.74
2018-08-11T03:01:18.479Z,67.41
2018-08-11T03:03:45.741Z,67.10
2018-08-11T03:06:13.018Z,67.55
2018-08-11T03:08:40.313Z,67.82
2018-08-11T03:11:07.591Z,67.45
2018-08-11T03:13:34.898Z,66.93
2018-08-11T03:16:02.174Z,67.24
2018-08-11T03:18:29.515Z,67.99
2018-08-11T03:20:56.853Z,67.93
2018-08-11T03:23:24.109Z,68.05
2018-08-11T03:25:51.449Z,68.84
2018-08-11T03:28:18.733Z,68.63
2018-08-11T03:30:45.981Z,68.93
2018-08-11T03:33:13.280Z,68.11
2018-08-11T03:35:40.584Z,68.60
2018-08-11T03:38:07.837Z,68.09
2018-08-11T03:40:35.154Z,68.36
2018-08-11T03:43:02.489Z,67.47
2018-08-11T03:45:29.763Z,67.33
2018-08-11T03:47:57.035Z,66.84
2018-08-11T03:50:24.321Z,66.51
2018-08-11T03:52:51.590Z,67.04
2018-08-11T03:55:18.834Z,66.00
2018-08-11T03:57:46.135Z,66.39
2018-08-11T04:00:13.392Z,66.19
2018-08-11T04:02:40.689Z,67.15
2018-08-11T04:05:07.991Z,66.40
2018-08-11T04:07:35.322Z,66.44
2018-08-11T04:10:02.662Z,67.02
2018-08-11T04:12:30.385Z,67.08
2018-08-11T04:14:57.609Z,66.47
2018-08-11T04:17:29.563Z,66.84
2018-08-11T04:19:56.835Z,66.91
2018-08-11T04:22:24.243Z,67.47
2018-08-11T04:24:51.710Z,66.84
2018-08-11T04:27:18.996Z,65.98
2018-08-11T04:29:46.221Z,65.38
2018-08-11T04:32:13.516Z,66.27
2018-08-11T04:34:40.795Z,66.62
2018-08-11T04:37:08.047Z,65.94
2018-08-11T04:39:35.319Z,66.23
2018-08-11T04:42:02.812Z,65.86
2018-08-11T04:44:30.047Z,66.47
2018-08-11T04:46:57.327Z,63.94
2018-08-11T04:49:24.661Z,63.96
2018-08-11T04:51:51.954Z,63.40
2018-08-11T04:54:19.271Z,63.34
2018-08-11T04:56:46.534Z,62.78
2018-08-11T04:59:13.794Z,63.10
2018-08-11T05:01:42.851Z,63.10
2018-08-11T05:04:10.209Z,63.15
2018-08-11T05:06:37.495Z,63.25
2018-08-11T05:09:06.164Z,63.64
2018-08-11T05:11:33.436Z,63.63
2018-08-11T05:14:00.921Z,62.90
2018-08-11T05:16:28.228Z,62.39
2018-08-11T05:18:55.554Z,62.53
2018-08-11T05:21:22.897Z,62.66
2018-08-11T05:23:50.144Z,63.60
2018-08-11T05:26:17.489Z,62.73
2018-08-11T05:28:44.742Z,61.42
2018-08-11T05:31:11.994Z,61.45
2018-08-11T05:33:39.290Z,61.14
2018-08-11T05:36:06.615Z,61.91
2018-08-11T05:38:34.164Z,62.12
2018-08-11T05:41:01.526Z,60.87
2018-08-11T05:43:28.786Z,61.55
2018-08-11T05:45:56.123Z,61.02
2018-08-11T05:48:23.412Z,61.01
2018-08-11T05:50:50.742Z,60.62
2018-08-11T05:53:18.022Z,60.12
2018-08-11T05:55:45.315Z,60.60
2018-08-11T05:58:12.626Z,60.49
2018-08-11T06:00:39.908Z,60.54
2018-08-11T06:03:07.221Z,58.50
2018-08-11T06:05:34.514Z,58.93
2018-08-11T06:08:01.762Z,58.79
2018-08-11T06:10:29.156Z,58.78
2018-08-11T06:12:56.431Z,57.30
2018-08-11T06:15:23.794Z,56.28
2018-08-11T06:17:51.072Z,56.39
2018-08-11T06:20:18.355Z,56.05
2018-08-11T06:22:45.700Z,56.78
2018-08-11T06:25:12.941Z,55.51
2018-08-11T06:27:40.551Z,55.84
2018-08-11T06:30:08.810Z,56.17
2018-08-11T06:32:36.188Z,56.01
2018-08-11T06:35:03.986Z,56.39
2018-08-11T06:37:31.422Z,55.89
2018-08-11T06:39:58.773Z,56.73
2018-08-11T06:42:26.065Z,55.98
2018-08-11T06:44:53.292Z,56.71
2018-08-11T06:47:20.667Z,54.82
2018-08-11T06:49:48.159Z,55.68
2018-08-11T06:52:15.580Z,53.79
2018-08-11T06:54:42.856Z,53.84
2018-08-11T06:57:10.104Z,53.28
2018-08-11T06:59:37.347Z,54.45
2018-08-11T07:02:04.674Z,53.23
2018-08-11T07:04:31.990Z,54.29
2018-08-11T07:06:59.358Z,54.78
2018-08-11T07:09:26.610Z,55.00
2018-08-11T07:12:07.050Z,54.45
2018-08-11T07:14:37.094Z,54.29
2018-08-11T07:17:04.423Z,53.99
2018-08-11T07:19:31.706Z,51.78
2018-08-11T07:21:58.975Z,50.57
2018-08-11T07:24:26.263Z,49.65
2018-08-11T07:26:53.564Z,49.16
2018-08-11T07:29:20.894Z,49.71
2018-08-11T07:31:48.245Z,49.56
2018-08-11T07:34:15.851Z,49.69
2018-08-11T07:36:43.285Z,49.62
2018-08-11T07:39:10.484Z,48.50
2018-08-11T07:41:37.911Z,47.18
2018-08-11T07:44:09.087Z,47.25
2018-08-11T07:46:36.364Z,46.43
2018-08-11T07:49:03.639Z,46.56
2018-08-11T07:51:31.022Z,45.67
2018-08-11T07:53:58.329Z,46.21
2018-08-11T07:56:25.617Z,47.41
2018-08-11T07:58:52.895Z,47.81
2018-08-11T08:01:39.650Z,48.46
2018-08-11T08:04:07.146Z,49.01
2018-08-11T08:06:34.456Z,47.89
2018-08-11T08:09:01.723Z,48.36
2018-08-11T08:11:29.046Z,47.33
2018-08-11T08:13:56.344Z,47.65
2018-08-11T08:16:23.592Z,46.43
2018-08-11T08:18:50.878Z,47.36
2018-08-11T08:21:18.150Z,46.83
2018-08-11T08:23:46.046Z,47.32
2018-08-11T08:26:13.562Z,47.47
2018-08-11T08:28:40.743Z,47.44
2018-08-11T08:31:08.016Z,46.57
2018-08-11T08:33:35.343Z,45.80
2018-08-11T08:36:02.692Z,45.15
2018-08-11T08:38:29.998Z,46.07
2018-08-11T08:40:57.360Z,46.11
2018-08-11T08:43:25.312Z,45.24
2018-08-11T08:45:52.610Z,45.81
2018-08-11T08:48:19.948Z,44.83
2018-08-11T08:50:47.228Z,45.17
2018-08-11T08:53:14.533Z,43.24
2018-08-11T08:55:41.870Z,44.36
2018-08-11T08:58:09.112Z,46.01
2018-08-11T09:00:36.402Z,44.83
2018-08-11T09:03:03.668Z,44.96
2018-08-11T09:05:31.821Z,46.13
2018-08-11T09:07:59.164Z,47.15
2018-08-11T09:10:26.543Z,44.32
2018-08-11T09:12:53.806Z,44.39
2018-08-11T09:15:21.173Z,44.40
2018-08-11T09:17:48.492Z,44.15
2018-08-11T09:20:15.935Z,43.51
2018-08-11T09:22:43.481Z,40.39
2018-08-11T09:25:10.886Z,41.73
2018-08-11T09:27:38.236Z,42.59
2018-08-11T09:30:06.240Z,41.09
2018-08-11T09:32:33.480Z,41.98
2018-08-11T09:35:00.744Z,42.07
2018-08-11T09:37:28.035Z,43.00
2018-08-11T09:39:55.279Z,43.21
2018-08-11T09:42:22.572Z,43.07
2018-08-11T09:44:49.825Z,42.93
2018-08-11T09:47:17.272Z,41.25
2018-08-11T09:49:44.697Z,42.71
2018-08-11T09:52:12.198Z,42.18
2018-08-11T09:54:39.682Z,41.81
2018-08-11T09:57:07.426Z,41.09
2018-08-11T09:59:34.869Z,40.23
2018-08-11T10:02:08.246Z,41.64
2018-08-11T10:04:35.734Z,41.74
2018-08-11T10:07:03.232Z,43.71
2018-08-11T10:09:30.666Z,42.62
2018-08-11T10:11:58.168Z,43.38
2018-08-11T10:14:25.526Z,40.34
2018-08-11T10:16:52.956Z,40.04
2018-08-11T10:19:22.306Z,38.44
2018-08-11T10:21:49.681Z,38.07
2018-08-11T10:24:17.734Z,38.67
2018-08-11T10:26:45.393Z,38.19
2018-08-11T10:29:12.954Z,38.75
2018-08-11T10:31:41.063Z,38.04
2018-08-11T10:34:08.604Z,37.42
2018-08-11T10:36:36.324Z,36.86
2018-08-11T10:39:07.896Z,39.68
2018-08-11T10:41:35.516Z,38.25
2018-08-11T10:44:02.918Z,38.23
2018-08-11T10:46:30.413Z,36.97
2018-08-11T10:48:58.086Z,36.20
2018-08-11T10:51:25.700Z,35.93
2018-08-11T10:53:53.105Z,38.19
2018-08-11T10:56:20.586Z,39.91
2018-08-11T10:58:48.147Z,38.75
2018-08-11T11:01:15.869Z,39.35
2018-08-11T11:03:43.451Z,40.55
2018-08-11T11:06:11.214Z,41.87
2018-08-11T11:08:38.764Z,39.48
2018-08-11T11:11:06.342Z,39.34
2018-08-11T11:13:33.877Z,40.67
2018-08-11T11:16:01.398Z,41.21
2018-08-11T11:18:28.834Z,40.56
2018-08-11T11:20:57.097Z,41.39
2018-08-11T11:23:24.574Z,39.43
2018-08-11T11:25:52.048Z,37.52
2018-08-11T11:28:19.487Z,35.41
2018-08-11T11:30:47.080Z,38.71
2018-08-11T11:33:14.489Z,40.11
2018-08-11T11:35:42.095Z,41.29
2018-08-11T11:38:09.595Z,40.72
2018-08-11T11:40:37.103Z,40.77
2018-08-11T11:43:04.589Z,39.47
2018-08-11T11:45:31.930Z,38.03
2018-08-11T11:47:59.338Z,35.08
2018-08-11T11:50:26.899Z,37.70
2018-08-11T11:52:54.337Z,38.98
2018-08-11T11:55:21.844Z,38.00
2018-08-11T11:57:49.259Z,38.27
2018-08-11T12:00:16.806Z,37.68
2018-08-11T12:02:44.532Z,37.27
2018-08-11T12:05:12.075Z,36.91
2018-08-11T12:07:39.589Z,35.38
2018-08-11T12:10:07.112Z,36.39
2018-08-11T12:12:34.572Z,35.94
2018-08-11T12:15:02.064Z,34.58
2018-08-11T12:17:29.587Z,33.33
2018-08-11T12:19:57.210Z,34.11
2018-08-11T12:22:24.808Z,33.35
2018-08-11T12:24:52.312Z,33.91
2018-08-11T12:27:19.772Z,33.16
2018-08-11T12:29:47.211Z,33.33
2018-08-11T12:32:14.836Z,34.54
2018-08-11T12:34:42.292Z,34.70
2018-08-11T12:37:09.714Z,36.79
2018-08-11T12:39:36.963Z,36.42
2018-08-11T12:42:04.319Z,34.75
2018-08-11T12:44:31.643Z,35.43
2018-08-11T12:46:58.906Z,34.48
2018-08-11T12:49:26.290Z,35.51
2018-08-11T12:51:53.569Z,34.06
2018-08-11T12:54:20.802Z,33.98
2018-08-11T12:56:48.117Z,34.83
2018-08-11T12:59:15.472Z,35.25
2018-08-11T13:01:43.909Z,36.05
2018-08-11T13:04:11.269Z,35.66
2018-08-11T13:06:38.571Z,33.94
2018-08-11T13:09:07.639Z,34.13
2018-08-11T13:11:34.934Z,32.92
2018-08-11T13:14:02.252Z,34.27
2018-08-11T13:16:35.296Z,33.52
2018-08-11T13:19:02.581Z,34.15
2018-08-11T13:21:29.883Z,33.82
2018-08-11T13:23:57.149Z,33.10
2018-08-11T13:26:24.420Z,34.13
2018-08-11T13:28:51.959Z,33.38
2018-08-11T13:31:19.220Z,33.69
2018-08-11T13:33:46.542Z,32.38
2018-08-11T13:36:13.832Z,31.45
2018-08-11T13:38:41.201Z,33.55
2018-08-11T13:41:09.217Z,33.89
2018-08-11T13:43:36.585Z,34.80
2018-08-11T13:46:03.923Z,34.20
2018-08-11T13:48:31.230Z,35.20
2018-08-11T13:50:58.744Z,36.79
2018-08-11T13:53:26.436Z,36.06
2018-08-11T13:55:53.806Z,36.41
2018-08-11T13:58:21.117Z,35.55
2018-08-11T14:00:48.402Z,35.78
2018-08-11T14:03:15.725Z,35.19
2018-08-11T14:05:43.009Z,35.28
2018-08-11T14:08:10.330Z,37.70
2018-08-11T14:10:37.572Z,35.55
2018-08-11T14:13:04.895Z,34.78
2018-08-11T14:15:32.142Z,32.76
2018-08-11T14:17:59.404Z,32.83
2018-08-11T14:20:26.791Z,34.33
2018-08-11T14:22:54.071Z,35.06
2018-08-11T14:25:21.367Z,35.46
2018-08-11T14:27:48.776Z,34.96
2018-08-11T14:30:16.136Z,32.87
2018-08-11T14:32:43.581Z,31.85
2018-08-11T14:35:10.873Z,31.96
2018-08-11T14:37:38.159Z,31.89
2018-08-11T14:40:07.492Z,31.56
2018-08-11T14:42:34.757Z,31.09
2018-08-11T14:45:02.015Z,32.42
2018-08-11T14:47:29.338Z,31.72
2018-08-11T14:49:56.598Z,30.86
2018-08-11T14:52:23.952Z,30.96
2018-08-11T14:54:51.422Z,30.52
2018-08-11T14:57:18.735Z,30.28
2018-08-11T14:59:46.178Z,29.89
2018-08-11T15:02:13.503Z,30.27
2018-08-11T15:04:40.829Z,28.40
2018-08-11T15:07:08.148Z,29.88
2018-08-11T15:09:35.467Z,31.02
2018-08-11T15:12:02.806Z,30.83
2018-08-11T15:14:30.078Z,32.11
2018-08-11T15:16:57.366Z,31.74
2018-08-11T15:19:24.644Z,31.56
2018-08-11T15:21:51.915Z,30.27
2018-08-11T15:24:19.178Z,29.78
2018-08-11T15:26:46.526Z,29.53
2018-08-11T15:29:14.071Z,29.63
2018-08-11T15:31:41.768Z,29.75
2018-08-11T15:34:09.231Z,30.18
2018-08-11T15:36:36.486Z,31.37
2018-08-11T15:39:07.360Z,31.67
2018-08-11T15:41:34.635Z,31.41
2018-08-11T15:44:01.988Z,31.43
2018-08-11T15:46:29.212Z,32.71
2018-08-11T15:48:56.593Z,32.48
2018-08-11T15:51:23.846Z,32.45
2018-08-11T15:53:51.194Z,32.42
2018-08-11T15:56:18.432Z,32.00
2018-08-11T15:58:45.654Z,31.93
2018-08-11T16:01:13.000Z,31.74
2018-08-11T16:03:40.246Z,31.48
2018-08-11T16:06:07.650Z,30.96
2018-08-11T16:08:34.937Z,31.22
2018-08-11T16:11:02.232Z,31.80
2018-08-11T16:13:29.550Z,31.10
2018-08-11T16:15:56.869Z,31.88
2018-08-11T16:18:24.195Z,31.47
2018-08-11T16:20:51.441Z,31.57
2018-08-11T16:23:18.917Z,32.30
2018-08-11T16:25:46.329Z,32.69
2018-08-11T16:28:13.672Z,33.05
2018-08-11T16:30:41.012Z,32.61
2018-08-11T16:33:08.324Z,32.48
2018-08-11T16:35:35.611Z,33.13
2018-08-11T16:38:02.910Z,32.11
2018-08-11T16:40:30.201Z,32.59
2018-08-11T16:42:57.472Z,33.21
2018-08-11T16:45:24.781Z,32.88
2018-08-11T16:47:52.202Z,33.63
2018-08-11T16:50:19.772Z,33.27
2018-08-11T16:52:46.974Z,33.62
2018-08-11T16:55:14.287Z,34.35
2018-08-11T16:57:41.548Z,34.20
2018-08-11T17:00:10.539Z,34.09
2018-08-11T17:02:37.824Z,35.87
2018-08-11T17:05:05.414Z,34.95
2018-08-11T17:07:33.768Z,36.03
2018-08-11T17:10:01.040Z,35.72
2018-08-11T17:12:28.305Z,36.37
2018-08-11T17:14:55.615Z,36.55
2018-08-11T17:17:22.899Z,36.69
2018-08-11T17:19:54.529Z,37.02
2018-08-11T17:22:23.212Z,37.88
2018-08-11T17:24:50.468Z,37.67
2018-08-11T17:27:17.767Z,37.84
2018-08-11T17:29:45.052Z,38.00
2018-08-11T17:32:12.314Z,38.73
2018-08-11T17:34:39.624Z,38.53
2018-08-11T17:37:06.905Z,38.61
2018-08-11T17:39:34.201Z,38.82
2018-08-11T17:42:01.459Z,39.50
2018-08-11T17:44:28.820Z,38.98
2018-08-11T17:46:56.229Z,40.16
2018-08-11T17:49:23.527Z,39.86
2018-08-11T17:51:50.842Z,40.59
2018-08-11T17:54:18.130Z,39.09
2018-08-11T17:56:45.433Z,40.17
2018-08-11T17:59:12.700Z,40.35
2018-08-11T18:01:42.080Z,41.12
2018-08-11T18:04:09.518Z,40.95
2018-08-11T18:06:36.794Z,41.24
2018-08-11T18:09:06.723Z,41.43
2018-08-11T18:11:34.033Z,41.69
2018-08-11T18:14:01.320Z,42.56
2018-08-11T18:16:28.579Z,41.72
2018-08-11T18:18:55.900Z,42.16
2018-08-11T18:21:23.312Z,42.14
2018-08-11T18:23:51.978Z,42.00
2018-08-11T18:26:21.799Z,42.99
2018-08-11T18:28:49.282Z,42.94
2018-08-11T18:31:16.706Z,42.81
2018-08-11T18:33:43.980Z,42.55
2018-08-11T18:36:11.340Z,42.36
2018-08-11T18:38:38.653Z,43.72
2018-08-11T18:41:05.995Z,43.90
2018-08-11T18:43:33.254Z,43.03
2018-08-11T18:46:00.534Z,43.50
2018-08-11T18:48:27.723Z,43.43
2018-08-11T18:50:55.050Z,44.19
2018-08-11T18:53:22.303Z,44.28
2018-08-11T18:55:49.611Z,44.46
2018-08-11T18:58:16.922Z,44.88
2018-08-11T19:00:44.329Z,44.66
2018-08-11T19:03:11.654Z,44.26
2018-08-11T19:05:38.953Z,45.37
2018-08-11T19:08:06.306Z,45.59
2018-08-11T19:10:33.642Z,46.02
2018-08-11T19:13:00.983Z,46.24
2018-08-11T19:15:28.240Z,46.12
2018-08-11T19:17:55.629Z,45.98
2018-08-11T19:20:22.981Z,46.75
2018-08-11T19:22:50.339Z,46.11
2018-08-11T19:25:17.660Z,45.77
2018-08-11T19:27:44.886Z,46.62
2018-08-11T19:30:12.205Z,46.21
2018-08-11T19:32:39.949Z,46.48
2018-08-11T19:35:07.509Z,46.53
2018-08-11T19:37:35.294Z,47.18
2018-08-11T19:40:02.702Z,47.48
2018-08-11T19:42:30.039Z,47.40
2018-08-11T19:44:57.616Z,47.94
2018-08-11T19:47:25.263Z,48.67
2018-08-11T19:49:52.548Z,47.96
2018-08-11T19:52:19.861Z,48.60
2018-08-11T19:54:47.160Z,48.84
2018-08-11T19:57:15.355Z,48.92
2018-08-11T19:59:42.679Z,49.09
2018-08-11T20:02:10.053Z,50.00
2018-08-11T20:04:37.304Z,50.18
2018-08-11T20:07:04.948Z,50.12
2018-08-11T20:09:32.212Z,50.29
2018-08-11T20:11:59.552Z,50.61
2018-08-11T20:14:26.849Z,50.83
2018-08-11T20:16:54.165Z,50.68
2018-08-11T20:19:21.613Z,50.83
2018-08-11T20:21:48.763Z,50.84
2018-08-11T20:24:16.109Z,51.58
2018-08-11T20:26:43.300Z,51.38
2018-08-11T20:29:10.663Z,51.75
2018-08-11T20:31:38.068Z,52.15
2018-08-11T20:34:05.517Z,52.77
2018-08-11T20:36:32.789Z,51.88
2018-08-11T20:39:00.141Z,51.96
2018-08-11T20:41:27.587Z,52.84
2018-08-11T20:43:54.974Z,52.97
2018-08-11T20:46:22.361Z,52.72
2018-08-11T20:48:49.712Z,52.58
2018-08-11T20:51:17.095Z,53.70
2018-08-11T20:53:44.536Z,53.50
2018-08-11T20:56:11.962Z,54.10
2018-08-11T20:58:39.381Z,54.57
2018-08-11T21:01:06.732Z,55.34
2018-08-11T21:03:34.121Z,55.42
2018-08-11T21:06:01.467Z,55.23
2018-08-11T21:08:28.826Z,55.29
2018-08-11T21:10:56.199Z,56.29
2018-08-11T21:13:23.476Z,55.68
2018-08-11T21:15:50.925Z,55.37
2018-08-11T21:18:18.331Z,55.86
2018-08-11T21:20:45.771Z,55.79
2018-08-11T21:23:13.126Z,55.59
2018-08-11T21:25:40.439Z,56.20
2018-08-11T21:28:07.681Z,55.80
2018-08-11T21:30:34.972Z,55.76
2018-08-11T21:33:02.331Z,56.66
2018-08-11T21:35:29.694Z,57.54
2018-08-11T21:37:57.039Z,58.09
2018-08-11T21:40:24.363Z,58.78
2018-08-11T21:42:51.813Z,59.10
2018-08-11T21:45:19.089Z,59.38
2018-08-11T21:47:46.416Z,59.26
2018-08-11T21:50:13.801Z,59.45
2018-08-11T21:52:41.144Z,59.45
2018-08-11T21:55:09.016Z,59.31
2018-08-11T21:57:36.831Z,59.22
2018-08-11T22:00:28.897Z,60.41
2018-08-11T22:02:56.249Z,60.66
2018-08-11T22:05:23.876Z,61.86
2018-08-11T22:07:51.193Z,61.21
2018-08-11T22:10:18.804Z,61.35
2018-08-11T22:12:46.151Z,60.82
2018-08-11T22:15:15.161Z,61.56
2018-08-11T22:17:42.460Z,60.94
2018-08-11T22:20:09.763Z,61.08
2018-08-11T22:22:37.082Z,61.17
2018-08-11T22:25:05.817Z,61.14
2018-08-11T22:27:33.264Z,61.06
2018-08-11T22:30:00.659Z,61.77
2018-08-11T22:32:27.923Z,61.12
2018-08-11T22:34:55.252Z,60.82
2018-08-11T22:37:22.874Z,61.67
2018-08-11T22:39:50.143Z,61.54
2018-08-11T22:42:17.587Z,61.65
2018-08-11T22:44:44.845Z,62.43
2018-08-11T22:47:12.191Z,63.24
2018-08-11T22:49:39.516Z,63.50
2018-08-11T22:52:06.868Z,63.54
2018-08-11T22:54:34.190Z,63.28
2018-08-11T22:57:01.428Z,63.18
2018-08-11T22:59:28.796Z,63.78
2018-08-11T23:01:56.117Z,63.92
2018-08-11T23:04:23.413Z,63.87
2018-08-11T23:06:50.681Z,63.65
2018-08-11T23:09:17.939Z,63.52
2018-08-11T23:11:45.337Z,63.61
2018-08-11T23:14:12.645Z,64.66
2018-08-11T23:16:39.955Z,64.41
2018-08-11T23:19:07.256Z,64.53
2018-08-11T23:21:34.521Z,64.75
2018-08-11T23:24:01.756Z,64.96
2018-08-11T23:26:29.076Z,65.06
2018-08-11T23:28:56.310Z,65.27
2018-08-11T23:31:23.544Z,65.43
2018-08-11T23:33:51.077Z,65.79
2018-08-11T23:36:18.371Z,66.47
2018-08-11T23:38:45.745Z,66.44
2018-08-11T23:41:13.090Z,66.18
2018-08-11T23:43:40.472Z,66.07
2018-08-11T23:46:07.772Z,66.68
2018-08-11T23:48:35.026Z,66.96
2018-08-11T23:51:02.475Z,66.31
2018-08-11T23:53:29.687Z,66.81
2018-08-11T23:55:56.984Z,66.95
2018-08-11T23:58:24.330Z,67.41
